Carmel, NY (10512)

3:57 PM EDT on August 03, 2015 (GMT -0400)
Lake Sagamore | | Change Station
CLOSE
Current Station
Personal Weather Station
Location: Kent Cliffs, NY
Elevation: 712 ft
Nearby Weather Stations

Elev 712 ft 41.48 °N, 73.78 °W | Updated 24 seconds ago

Partly Cloudy
Partly Cloudy
86.7 °F
Feels Like 87 °F
N
0.7
Wind Variable Wind from West
Gusts 2.2 mph

Today
High -- | Low -- °F
--% Chance of Precip.
Yesterday
High -- | Low -- °F
Precip. -- in
5:51 AM 8:10 PM
Waning Gibbous, 84% visible
Pressure 29.78 in
Visibility 10.0 miles
Clouds Few 6000 ft
Few 7500 ft
Heat Index 87 °F
Dew Point 62 °F
Humidity 43%
Rainfall 0.00 in
Snow Depth Not available.
UV 6 out of 12
Pollen 7.60 out of 12
Air Quality Not available.
Flu Activity Not available.
METAR KDXR 031953Z 18013G19KT 10SM FEW060 FEW075 29/16 A2979 RMK AO2 SLP083 T02940161

More Conditions Fewer Conditions

Pressure 29.78 in
Visibility 10.0 miles
Clouds Few 6000 ft
Few 7500 ft
Heat Index 87 °F
Dew Point 62 °F
Humidity 43%
Rainfall 0.00 in
Snow Depth Not available.
UV 6 out of 12
Pollen 7.60 out of 12
Air Quality Not available.
Flu Activity Not available.
METAR KDXR 031953Z 18013G19KT 10SM FEW060 FEW075 29/16 A2979 RMK AO2 SLP083 T02940161

More Conditions Fewer Conditions

10-Day Weather Forecast

×

Almanac

Astronomy

Aug. 03, 2015 Rise Set
Actual Time
Civil Twilight
Nautical Twilight
Astronomical Twilight
Moon
Length of Visible Light
Length of Day
Tomorrow will be .
, % of the Moon is Illuminated

Today's Extremes

State Highs State Lows

Community

WunderPhotos

Upload Photos

1,843,717 photos uploaded!

WunderBlogs® & News

Nearby

Air Quality

  Air Quality AQ Index Pollutant
Not available.

Snow Depth

Station Depth Elevation

Earthquake Activity

City Distance Mag. Time & Date
Minimum magnitude displayed is 2.5.

Coastal Water Temperatures

Place Temperature

Stations

Nearby Weather Stations

Station Location Temp. Windchill Dew Point Humidity Wind Precip. Elev Updated Type